Decoded Metar for CYDN (DAUPHIN in MB, CANADA) (IATA:YDN) | Meteo·Mobile Aviation Weather
aviador You're here:

CYDN Decoded Metar

DAUPHIN in MB, CANADA
Report Time2019-01-16 18:00:00
UTC Time2019-01-16 18:37:52
Flight Rules vfr VFR
Wind360° at 02 kt
W.Decomp.*RWY 02: 1.8 kt HW 0.9 kt LCW
RWY 32: 1.7 kt HW 1.1 kt RCW
RWY 08: 0.1 kt HW 2 kt LCW
Visibility9999 m
Phenomena:N/A
Clouds:N/A
Expected CloudBase > 1,600 ft AGL from Temp-Dew spread
CeilingNone
Temp-21°C (ISA -34)
Dew Point-25°C (70% RH)
AAT-25.5°C
QNH1026 hPa
Density Alt-3,789 ft
Elevation1,001 ft
Report Wrong Elevation
Raw Report
CYDN 161800Z AUTO 36002KT 9SM CLR M21/M25 A3031 RMK SLP306=

Extra information for CYDN:More info

Metar Taf Metar & Taf Last 4 Metars F.Rules Stats Wind Profile Meteogram Temp Stats Airport Information Weather charts Add Link Nearby VenuesMetar ALERT Operation Metar Decoded Social comments